Terminal Aerodrome Forecast
Issued by NWS Twin Cities, MN

Home | Current Version | Previous Version | Text Only | Print | Product List | Glossary Off
Versions: 1 2 3 4 5 6 7 8 9 10 11 12 13 14 15 16 17 18 19 20 21

000
FTUS43 KMPX 201737
TAFEAU
TAF
KEAU 201737Z 2018/2118 12005KT 3SM -DZ BR OVC005
     FM210000 12004KT 4SM BR OVC005
     FM210400 11005KT 2SM BR OVC003
     FM211000 10006KT 4SM -RA BR OVC005=

USA.gov is the U.S. government's official web portal to all federal, state and local government web resources and services.